Time,TemperatureF,DewpointF,PressureIn,WindDirection,WindDirectionDegrees,WindSpeedMPH,WindSpeedGustMPH,Humidity,HourlyPrecipIn,Conditions,Clouds,dailyrainin,SoftwareType,DateUTC
2013-01-22 00:02:00,38.0,36.0,-100.00,South,169,3.0,-999.0,93,0.00,,,-99.99,,2013-01-22 08:02:00,
2013-01-22 00:11:00,38.0,36.0,-100.00,South,169,3.0,-999.0,93,0.00,,,-99.99,,2013-01-22 08:11:00,
2013-01-22 00:22:00,38.0,36.0,-100.00,South,169,3.0,-999.0,93,0.00,,,-99.99,,2013-01-22 08:22:00,
2013-01-22 00:30:00,38.0,37.0,-100.00,South,174,3.0,-999.0,94,0.00,,,-99.99,,2013-01-22 08:30:00,
2013-01-22 00:52:00,38.0,37.0,-100.00,South,174,3.0,-999.0,94,0.00,,,-99.99,,2013-01-22 08:52:00,
2013-01-22 01:02:00,38.0,37.0,-100.00,South,174,3.0,-999.0,94,0.00,,,-99.99,,2013-01-22 09:02:00,
2013-01-22 01:11:00,38.0,37.0,-100.00,South,174,3.0,-999.0,94,0.00,,,-99.99,,2013-01-22 09:11:00,
2013-01-22 01:22:00,38.0,37.0,-100.00,South,174,3.0,-999.0,94,0.00,,,-99.99,,2013-01-22 09:22:00,
2013-01-22 01:30:00,38.0,36.0,-100.00,South,176,3.0,-999.0,93,0.00,,,-99.99,,2013-01-22 09:30:00,
2013-01-22 01:52:00,38.0,36.0,-100.00,South,176,3.0,-999.0,93,0.00,,,-99.99,,2013-01-22 09:52:00,
2013-01-22 02:02:00,38.0,36.0,-100.00,South,176,3.0,-999.0,93,0.00,,,-99.99,,2013-01-22 10:02:00,
2013-01-22 02:12:00,38.0,36.0,-100.00,South,176,3.0,-999.0,93,0.00,,,-99.99,,2013-01-22 10:12:00,
2013-01-22 02:22:00,38.0,36.0,-100.00,South,176,3.0,-999.0,93,0.00,,,-99.99,,2013-01-22 10:22:00,
2013-01-22 02:30:00,39.0,36.0,-100.00,South,180,6.0,-999.0,90,0.00,,,-99.99,,2013-01-22 10:30:00,
2013-01-22 02:52:00,39.0,36.0,-100.00,South,180,6.0,-999.0,90,0.00,,,-99.99,,2013-01-22 10:52:00,
2013-01-22 03:02:00,39.0,36.0,-100.00,South,180,6.0,-999.0,90,0.00,,,-99.99,,2013-01-22 11:02:00,
2013-01-22 03:12:00,39.0,36.0,-100.00,South,180,6.0,-999.0,90,0.00,,,-99.99,,2013-01-22 11:12:00,
2013-01-22 03:22:00,39.0,36.0,-100.00,South,180,6.0,-999.0,90,0.00,,,-99.99,,2013-01-22 11:22:00,
2013-01-22 03:30:00,38.0,35.0,-100.00,South,173,5.0,-999.0,89,0.00,,,-99.99,,2013-01-22 11:30:00,
2013-01-22 03:53:00,38.0,35.0,-100.00,South,173,5.0,-999.0,89,0.00,,,-99.99,,2013-01-22 11:53:00,
2013-01-22 04:03:00,38.0,35.0,-100.00,South,173,5.0,-999.0,89,0.00,,,-99.99,,2013-01-22 12:03:00,
2013-01-22 04:12:00,38.0,35.0,-100.00,South,173,5.0,-999.0,89,0.00,,,-99.99,,2013-01-22 12:12:00,
2013-01-22 04:22:00,38.0,35.0,-100.00,South,173,5.0,-999.0,89,0.00,,,-99.99,,2013-01-22 12:22:00,
2013-01-22 04:30:00,37.0,34.0,-100.00,South,171,4.0,-999.0,92,0.00,,,-99.99,,2013-01-22 12:30:00,
2013-01-22 04:53:00,37.0,34.0,-100.00,South,171,4.0,-999.0,92,0.00,,,-99.99,,2013-01-22 12:53:00,
2013-01-22 05:03:00,37.0,34.0,-100.00,South,171,4.0,-999.0,92,0.00,,,-99.99,,2013-01-22 13:03:00,
2013-01-22 05:13:00,37.0,34.0,-100.00,South,171,4.0,-999.0,92,0.00,,,-99.99,,2013-01-22 13:13:00,
2013-01-22 05:23:00,37.0,34.0,-100.00,South,171,4.0,-999.0,92,0.00,,,-99.99,,2013-01-22 13:23:00,
2013-01-22 05:30:00,36.0,34.0,-100.00,South,172,6.0,-999.0,92,0.00,,,-99.99,,2013-01-22 13:30:00,
2013-01-22 05:53:00,36.0,34.0,-100.00,South,172,6.0,-999.0,92,0.00,,,-99.99,,2013-01-22 13:53:00,
2013-01-22 06:03:00,36.0,34.0,-100.00,South,172,6.0,-999.0,92,0.00,,,-99.99,,2013-01-22 14:03:00,
2013-01-22 06:12:00,36.0,34.0,-100.00,South,172,6.0,-999.0,92,0.00,,,-99.99,,2013-01-22 14:12:00,
2013-01-22 06:22:00,36.0,34.0,-100.00,South,172,6.0,-999.0,92,0.00,,,-99.99,,2013-01-22 14:22:00,
2013-01-22 06:30:00,37.0,34.0,-100.00,South,175,5.0,-999.0,92,0.00,,,-99.99,,2013-01-22 14:30:00,
2013-01-22 06:53:00,37.0,34.0,-100.00,South,175,5.0,-999.0,92,0.00,,,-99.99,,2013-01-22 14:53:00,
2013-01-22 07:03:00,37.0,34.0,-100.00,South,175,5.0,-999.0,92,0.00,,,-99.99,,2013-01-22 15:03:00,
2013-01-22 07:12:00,37.0,34.0,-100.00,South,175,5.0,-999.0,92,0.00,,,-99.99,,2013-01-22 15:12:00,
2013-01-22 07:23:00,37.0,34.0,-100.00,South,175,5.0,-999.0,92,0.00,,,-99.99,,2013-01-22 15:23:00,
2013-01-22 07:30:00,36.0,34.0,-100.00,SSE,166,4.0,-999.0,92,0.00,,,-99.99,,2013-01-22 15:30:00,
2013-01-22 07:53:00,36.0,34.0,-100.00,SSE,166,4.0,-999.0,92,0.00,,,-99.99,,2013-01-22 15:53:00,
2013-01-22 08:03:00,36.0,34.0,-100.00,SSE,166,4.0,-999.0,92,0.00,,,-99.99,,2013-01-22 16:03:00,
2013-01-22 08:13:00,36.0,34.0,-100.00,SSE,166,4.0,-999.0,92,0.00,,,-99.99,,2013-01-22 16:13:00,
2013-01-22 08:23:00,36.0,34.0,-100.00,SSE,166,4.0,-999.0,92,0.00,,,-99.99,,2013-01-22 16:23:00,
2013-01-22 08:30:00,36.0,33.0,-100.00,South,178,6.0,-999.0,88,0.00,,,-99.99,,2013-01-22 16:30:00,
2013-01-22 08:54:00,36.0,33.0,-100.00,South,178,6.0,-999.0,88,0.00,,,-99.99,,2013-01-22 16:54:00,
2013-01-22 09:03:00,36.0,33.0,-100.00,South,178,6.0,-999.0,88,0.00,,,-99.99,,2013-01-22 17:03:00,
2013-01-22 09:12:00,36.0,33.0,-100.00,South,178,6.0,-999.0,88,0.00,,,-99.99,,2013-01-22 17:12:00,
2013-01-22 09:23:00,36.0,33.0,-100.00,South,178,6.0,-999.0,88,0.00,,,-99.99,,2013-01-22 17:23:00,
2013-01-22 09:30:00,39.0,35.0,-100.00,South,169,4.0,-999.0,85,0.00,,,-99.99,,2013-01-22 17:30:00,
2013-01-22 09:53:00,39.0,35.0,-100.00,South,169,4.0,-999.0,85,0.00,,,-99.99,,2013-01-22 17:53:00,
2013-01-22 10:03:00,39.0,35.0,-100.00,South,169,4.0,-999.0,85,0.00,,,-99.99,,2013-01-22 18:03:00,
2013-01-22 10:12:00,39.0,35.0,-100.00,South,169,4.0,-999.0,85,0.00,,,-99.99,,2013-01-22 18:12:00,
2013-01-22 10:23:00,39.0,35.0,-100.00,South,169,4.0,-999.0,85,0.00,,,-99.99,,2013-01-22 18:23:00,
2013-01-22 10:30:00,42.0,35.0,-100.00,SSE,163,2.0,-999.0,78,0.00,,,-99.99,,2013-01-22 18:30:00,
2013-01-22 10:54:00,42.0,35.0,-100.00,SSE,163,2.0,-999.0,78,0.00,,,-99.99,,2013-01-22 18:54:00,
2013-01-22 11:03:00,42.0,35.0,-100.00,SSE,163,2.0,-999.0,78,0.00,,,-99.99,,2013-01-22 19:03:00,
2013-01-22 11:13:00,42.0,35.0,-100.00,SSE,163,2.0,-999.0,78,0.00,,,-99.99,,2013-01-22 19:13:00,
2013-01-22 11:23:00,42.0,35.0,-100.00,SSE,163,2.0,-999.0,78,0.00,,,-99.99,,2013-01-22 19:23:00,
2013-01-22 11:30:00,47.0,37.0,-100.00,South,174,3.0,-999.0,67,0.00,,,-99.99,,2013-01-22 19:30:00,
2013-01-22 11:54:00,47.0,37.0,-100.00,South,174,3.0,-999.0,67,0.00,,,-99.99,,2013-01-22 19:54:00,
2013-01-22 12:03:00,47.0,37.0,-100.00,South,174,3.0,-999.0,67,0.00,,,-99.99,,2013-01-22 20:03:00,
2013-01-22 12:12:00,47.0,37.0,-100.00,South,174,3.0,-999.0,67,0.00,,,-99.99,,2013-01-22 20:12:00,
2013-01-22 12:22:00,47.0,37.0,-100.00,South,174,3.0,-999.0,67,0.00,,,-99.99,,2013-01-22 20:22:00,
2013-01-22 12:30:00,51.0,39.0,-100.00,South,183,1.0,-999.0,64,0.00,,,-99.99,,2013-01-22 20:30:00,
2013-01-22 12:53:00,51.0,39.0,-100.00,South,183,1.0,-999.0,64,0.00,,,-99.99,,2013-01-22 20:53:00,
2013-01-22 13:03:00,51.0,39.0,-100.00,South,183,1.0,-999.0,64,0.00,,,-99.99,,2013-01-22 21:03:00,
2013-01-22 13:13:00,51.0,39.0,-100.00,South,183,1.0,-999.0,64,0.00,,,-99.99,,2013-01-22 21:13:00,
2013-01-22 13:22:00,51.0,39.0,-100.00,South,183,1.0,-999.0,64,0.00,,,-99.99,,2013-01-22 21:22:00,
2013-01-22 13:30:00,53.0,41.0,-100.00,South,169,2.0,-999.0,62,0.00,,,-99.99,,2013-01-22 21:30:00,
2013-01-22 13:53:00,53.0,41.0,-100.00,South,169,2.0,-999.0,62,0.00,,,-99.99,,2013-01-22 21:53:00,
2013-01-22 14:02:00,53.0,41.0,-100.00,South,169,2.0,-999.0,62,0.00,,,-99.99,,2013-01-22 22:02:00,
2013-01-22 14:12:00,53.0,41.0,-100.00,South,169,2.0,-999.0,62,0.00,,,-99.99,,2013-01-22 22:12:00,
2013-01-22 14:22:00,53.0,41.0,-100.00,South,169,2.0,-999.0,62,0.00,,,-99.99,,2013-01-22 22:22:00,
2013-01-22 14:30:00,60.0,34.0,-100.00,South,183,3.0,-999.0,38,0.00,,,-99.99,,2013-01-22 22:30:00,
2013-01-22 14:53:00,60.0,34.0,-100.00,South,183,3.0,-999.0,38,0.00,,,-99.99,,2013-01-22 22:53:00,
2013-01-22 15:02:00,60.0,34.0,-100.00,South,183,3.0,-999.0,38,0.00,,,-99.99,,2013-01-22 23:02:00,
2013-01-22 15:12:00,60.0,34.0,-100.00,South,183,3.0,-999.0,38,0.00,,,-99.99,,2013-01-22 23:12:00,
2013-01-22 15:23:00,60.0,34.0,-100.00,South,183,3.0,-999.0,38,0.00,,,-99.99,,2013-01-22 23:23:00,
2013-01-22 15:30:00,58.0,35.0,-100.00,South,178,4.0,-999.0,42,0.00,,,-99.99,,2013-01-22 23:30:00,
2013-01-22 15:53:00,58.0,35.0,-100.00,South,178,4.0,-999.0,42,0.00,,,-99.99,,2013-01-22 23:53:00,
2013-01-22 16:02:00,58.0,35.0,-100.00,South,178,4.0,-999.0,42,0.00,,,-99.99,,2013-01-23 00:02:00,
2013-01-22 16:12:00,58.0,35.0,-100.00,South,178,4.0,-999.0,42,0.00,,,-99.99,,2013-01-23 00:12:00,
2013-01-22 16:22:00,58.0,35.0,-100.00,South,178,4.0,-999.0,42,0.00,,,-99.99,,2013-01-23 00:22:00,
2013-01-22 16:30:00,55.0,38.0,-100.00,SW,232,1.0,-999.0,52,0.00,,,-99.99,,2013-01-23 00:30:00,
2013-01-22 16:52:00,55.0,38.0,-100.00,SW,232,1.0,-999.0,52,0.00,,,-99.99,,2013-01-23 00:52:00,
2013-01-22 17:03:00,55.0,38.0,-100.00,SW,232,1.0,-999.0,52,0.00,,,-99.99,,2013-01-23 01:03:00,
2013-01-22 17:13:00,55.0,38.0,-100.00,SW,232,1.0,-999.0,52,0.00,,,-99.99,,2013-01-23 01:13:00,
2013-01-22 17:22:00,55.0,38.0,-100.00,SW,232,1.0,-999.0,52,0.00,,,-99.99,,2013-01-23 01:22:00,
2013-01-22 17:30:00,53.0,40.0,-100.00,South,183,3.0,-999.0,62,0.00,,,-99.99,,2013-01-23 01:30:00,
2013-01-22 17:53:00,53.0,40.0,-100.00,South,183,3.0,-999.0,62,0.00,,,-99.99,,2013-01-23 01:53:00,
2013-01-22 18:03:00,53.0,40.0,-100.00,South,183,3.0,-999.0,62,0.00,,,-99.99,,2013-01-23 02:03:00,
2013-01-22 18:12:00,53.0,40.0,-100.00,South,183,3.0,-999.0,62,0.00,,,-99.99,,2013-01-23 02:12:00,
2013-01-22 18:22:00,53.0,40.0,-100.00,South,183,3.0,-999.0,62,0.00,,,-99.99,,2013-01-23 02:22:00,
2013-01-22 18:30:00,52.0,41.0,-100.00,ESE,120,1.0,-999.0,65,0.00,,,-99.99,,2013-01-23 02:30:00,
2013-01-22 18:53:00,52.0,41.0,-100.00,ESE,120,1.0,-999.0,65,0.00,,,-99.99,,2013-01-23 02:53:00,
2013-01-22 19:03:00,52.0,41.0,-100.00,ESE,120,1.0,-999.0,65,0.00,,,-99.99,,2013-01-23 03:03:00,
2013-01-22 19:12:00,52.0,41.0,-100.00,ESE,120,1.0,-999.0,65,0.00,,,-99.99,,2013-01-23 03:12:00,
2013-01-22 19:22:00,52.0,41.0,-100.00,ESE,120,1.0,-999.0,65,0.00,,,-99.99,,2013-01-23 03:22:00,
2013-01-22 19:30:00,50.0,42.0,-100.00,NW,314,0.0,-999.0,72,0.00,,,-99.99,,2013-01-23 03:30:00,
2013-01-22 19:53:00,50.0,42.0,-100.00,NW,314,0.0,-999.0,72,0.00,,,-99.99,,2013-01-23 03:53:00,
2013-01-22 20:03:00,50.0,42.0,-100.00,NW,314,0.0,-999.0,72,0.00,,,-99.99,,2013-01-23 04:03:00,
2013-01-22 20:12:00,50.0,42.0,-100.00,NW,314,0.0,-999.0,72,0.00,,,-99.99,,2013-01-23 04:12:00,
2013-01-22 20:22:00,50.0,42.0,-100.00,NW,314,0.0,-999.0,72,0.00,,,-99.99,,2013-01-23 04:22:00,
2013-01-22 20:30:00,49.0,43.0,-100.00,North,357,1.0,-999.0,81,0.00,,,-99.99,,2013-01-23 04:30:00,
2013-01-22 20:53:00,49.0,43.0,-100.00,North,357,1.0,-999.0,81,0.00,,,-99.99,,2013-01-23 04:53:00,
2013-01-22 21:03:00,49.0,43.0,-100.00,North,357,1.0,-999.0,81,0.00,,,-99.99,,2013-01-23 05:03:00,
2013-01-22 21:12:00,49.0,43.0,-100.00,North,357,1.0,-999.0,81,0.00,,,-99.99,,2013-01-23 05:12:00,
2013-01-22 21:22:00,49.0,43.0,-100.00,North,357,1.0,-999.0,81,0.00,,,-99.99,,2013-01-23 05:22:00,
2013-01-22 21:30:00,48.0,43.0,-100.00,SSW,212,1.0,-999.0,82,0.00,,,-99.99,,2013-01-23 05:30:00,
2013-01-22 21:53:00,48.0,43.0,-100.00,SSW,212,1.0,-999.0,82,0.00,,,-99.99,,2013-01-23 05:53:00,
2013-01-22 22:02:00,48.0,43.0,-100.00,SSW,212,1.0,-999.0,82,0.00,,,-99.99,,2013-01-23 06:02:00,
2013-01-22 22:12:00,48.0,43.0,-100.00,SSW,212,1.0,-999.0,82,0.00,,,-99.99,,2013-01-23 06:12:00,
2013-01-22 22:22:00,48.0,43.0,-100.00,SSW,212,1.0,-999.0,82,0.00,,,-99.99,,2013-01-23 06:22:00,
2013-01-22 22:30:00,47.0,43.0,-100.00,South,178,1.0,-999.0,86,0.00,,,-99.99,,2013-01-23 06:30:00,
2013-01-22 22:53:00,47.0,43.0,-100.00,South,178,1.0,-999.0,86,0.00,,,-99.99,,2013-01-23 06:53:00,
2013-01-22 23:02:00,47.0,43.0,-100.00,South,178,1.0,-999.0,86,0.00,,,-99.99,,2013-01-23 07:02:00,
2013-01-22 23:12:00,47.0,43.0,-100.00,South,178,1.0,-999.0,86,0.00,,,-99.99,,2013-01-23 07:12:00,
2013-01-22 23:22:00,47.0,43.0,-100.00,South,178,1.0,-999.0,86,0.00,,,-99.99,,2013-01-23 07:22:00,
2013-01-22 23:30:00,46.0,43.0,-100.00,South,175,2.0,-999.0,89,0.00,,,-99.99,,2013-01-23 07:30:00,
2013-01-22 23:53:00,46.0,43.0,-100.00,South,175,2.0,-999.0,89,0.00,,,-99.99,,2013-01-23 07:53:00,